Time;durP1;ratioP1;P1;durP2;ratioP2;P2;SDS_P1;SDS_P2;PMS_P1;PMS_P2;Temp;Humidity;BMP_temperature;BMP_pressure;BME280_temperature;BME280_humidity;BME280_pressure;Samples;Min_cycle;Max_cycle;Signal;HPM_P1;HPM_P2
2023/12/26 00:00:13;;;;;;;1.80;1.40;;;;;;;9.17;72.73;96492.14;104963;1257;98969;-74
2023/12/26 00:03:02;;;;;;;2.40;1.00;;;;;;;9.15;72.85;96498.66;104978;1257;96693;-82
2023/12/26 00:05:30;;;;;;;0.90;0.80;;;;;;;9.14;72.96;96495.86;105101;1256;97055;-74
2023/12/26 00:07:58;;;;;;;2.70;0.90;;;;;;;9.12;73.12;96490.45;105019;1254;101278;-75
2023/12/26 00:10:26;;;;;;;1.20;1.00;;;;;;;9.13;73.13;96486.14;104956;1256;101467;-74
2023/12/26 00:12:53;;;;;;;2.80;1.40;;;;;;;9.11;73.43;96485.28;104973;1254;100233;-75
2023/12/26 00:15:21;;;;;;;4.20;2.00;;;;;;;9.10;73.33;96487.45;105011;1256;97355;-74
2023/12/26 00:17:49;;;;;;;1.00;0.90;;;;;;;9.08;73.53;96486.85;105005;1257;97006;-82
2023/12/26 00:20:17;;;;;;;0.90;0.70;;;;;;;9.05;73.74;96486.77;104970;1256;102201;-82
2023/12/26 00:22:45;;;;;;;1.30;0.90;;;;;;;9.03;73.63;96483.14;105103;1257;100052;-76
2023/12/26 00:25:13;;;;;;;2.90;1.20;;;;;;;9.02;73.66;96488.57;105100;1256;99083;-75
2023/12/26 00:27:42;;;;;;;1.30;1.00;;;;;;;9.00;73.71;96492.69;104992;1259;97368;-76
2023/12/26 00:30:11;;;;;;;1.00;0.90;;;;;;;9.00;73.94;96496.00;105005;1256;97074;-76
2023/12/26 00:32:39;;;;;;;1.50;0.90;;;;;;;8.98;73.83;96500.40;105262;1256;101248;-71
2023/12/26 00:35:07;;;;;;;2.40;1.00;;;;;;;8.96;73.82;96503.86;105234;1267;101507;-72
2023/12/26 00:37:35;;;;;;;1.50;1.30;;;;;;;8.95;73.99;96499.02;105066;1254;99972;-71
2023/12/26 00:40:03;;;;;;;1.30;0.70;;;;;;;8.94;74.01;96505.08;104945;1256;97893;-72
2023/12/26 00:42:31;;;;;;;1.90;0.70;;;;;;;8.93;74.20;96503.27;104996;1256;97010;-72
2023/12/26 00:44:59;;;;;;;1.40;0.80;;;;;;;8.91;74.10;96496.02;104934;1259;102234;-72
2023/12/26 00:47:27;;;;;;;1.10;1.00;;;;;;;8.90;74.09;96492.42;105067;1257;100421;-75
2023/12/26 00:49:59;;;;;;;1.40;0.90;;;;;;;8.91;74.01;96490.89;104949;1254;98702;-75
2023/12/26 00:52:27;;;;;;;1.70;0.90;;;;;;;8.90;74.12;96493.66;105065;1256;96833;-76
2023/12/26 00:54:55;;;;;;;1.20;1.00;;;;;;;8.89;74.14;96497.44;105088;1257;97138;-75
2023/12/26 00:57:25;;;;;;;3.00;0.90;;;;;;;8.89;74.08;96494.80;105171;1269;102243;-76
2023/12/26 00:59:53;;;;;;;1.80;1.50;;;;;;;8.88;74.13;96495.59;105431;1254;101493;-75
2023/12/26 01:02:22;;;;;;;3.30;1.00;;;;;;;8.87;74.16;96497.75;105277;1256;99007;-83
2023/12/26 01:04:50;;;;;;;1.60;1.00;;;;;;;8.86;74.16;96495.52;105848;1254;96883;-83
2023/12/26 01:07:18;;;;;;;1.30;0.90;;;;;;;8.85;74.23;96496.23;105014;1257;96978;-83
2023/12/26 01:09:45;;;;;;;2.20;1.60;;;;;;;8.83;74.41;96490.41;104727;1260;101335;-83
2023/12/26 01:12:14;;;;;;;2.00;0.90;;;;;;;8.81;74.39;96494.46;104965;1257;100023;-83
2023/12/26 01:14:42;;;;;;;1.90;1.00;;;;;;;8.80;74.48;96497.00;105075;1257;100308;-83
2023/12/26 01:17:10;;;;;;;1.40;1.00;;;;;;;8.77;74.53;96492.55;105283;1257;97547;-75
2023/12/26 01:19:38;;;;;;;1.40;1.10;;;;;;;8.75;74.56;96486.66;104974;1256;97887;-76
2023/12/26 01:22:06;;;;;;;2.00;1.00;;;;;;;8.73;74.78;96488.86;104997;1256;102167;-76
2023/12/26 01:24:33;;;;;;;3.20;1.50;;;;;;;8.71;74.78;96486.30;104971;1257;100412;-76
2023/12/26 01:27:01;;;;;;;5.10;2.00;;;;;;;8.70;74.75;96492.20;105016;1259;98990;-76
2023/12/26 01:29:29;;;;;;;1.40;0.80;;;;;;;8.67;74.91;96496.59;105003;1257;97423;-76
2023/12/26 01:31:56;;;;;;;5.80;1.90;;;;;;;8.65;74.90;96494.83;105013;1254;97354;-76
2023/12/26 01:34:24;;;;;;;1.60;1.20;;;;;;;8.64;74.81;96484.90;105034;1256;102263;-74
2023/12/26 01:36:52;;;;;;;4.30;2.00;;;;;;;8.63;74.80;96487.48;105194;1256;101689;-75
2023/12/26 01:39:19;;;;;;;4.20;2.30;;;;;;;8.62;74.82;96491.95;105055;1255;98999;-81
2023/12/26 01:41:47;;;;;;;3.60;1.80;;;;;;;8.60;74.90;96490.18;104999;1257;97393;-80
2023/12/26 01:44:15;;;;;;;1.70;1.10;;;;;;;8.58;75.00;96488.84;104981;1256;97007;-82
2023/12/26 01:46:43;;;;;;;2.00;1.40;;;;;;;8.57;75.00;96487.23;105008;1257;102674;-75
2023/12/26 01:49:12;;;;;;;1.60;1.00;;;;;;;8.56;74.94;96489.11;104990;1257;100361;-74
2023/12/26 01:51:42;;;;;;;1.50;1.30;;;;;;;8.56;74.95;96492.92;105094;1275;99896;-75
2023/12/26 01:54:11;;;;;;;1.90;1.20;;;;;;;8.56;75.00;96494.59;104928;1267;96725;-74
2023/12/26 01:56:38;;;;;;;2.10;1.10;;;;;;;8.53;75.23;96499.98;105077;1259;97148;-74
2023/12/26 01:59:07;;;;;;;1.80;1.20;;;;;;;8.52;75.15;96487.45;105009;1257;101664;-74
2023/12/26 02:01:36;;;;;;;2.50;1.00;;;;;;;8.51;75.19;96483.61;105028;1254;100445;-76
2023/12/26 02:04:04;;;;;;;0.90;0.70;;;;;;;8.52;74.99;96480.25;105027;1254;99848;-77
2023/12/26 02:06:35;;;;;;;1.20;1.00;;;;;;;8.50;75.01;96477.33;104897;1257;97956;-76
2023/12/26 02:09:03;;;;;;;1.30;0.60;;;;;;;8.48;75.07;96482.47;104976;1254;98332;-76
2023/12/26 02:11:32;;;;;;;1.50;0.80;;;;;;;8.47;75.05;96480.40;104979;1257;103519;-76
2023/12/26 02:14:02;;;;;;;1.30;0.90;;;;;;;8.48;75.01;96478.66;104931;1265;100101;-75
2023/12/26 02:16:31;;;;;;;1.40;1.00;;;;;;;8.48;74.92;96477.05;104961;1259;98899;-71
2023/12/26 02:18:59;;;;;;;1.00;0.80;;;;;;;8.49;75.03;96478.75;104941;1257;99385;-72
2023/12/26 02:21:27;;;;;;;1.00;1.00;;;;;;;8.48;75.10;96478.98;104924;1254;99294;-71
2023/12/26 02:23:56;;;;;;;1.00;0.80;;;;;;;8.47;75.15;96476.27;104913;1267;104495;-70
2023/12/26 02:26:25;;;;;;;0.90;0.80;;;;;;;8.45;75.33;96477.99;104947;1267;101254;-70
2023/12/26 02:28:54;;;;;;;0.90;0.80;;;;;;;8.42;75.52;96478.28;104946;1256;100033;-70
2023/12/26 02:31:24;;;;;;;1.60;1.00;;;;;;;8.39;75.61;96479.62;105001;1256;99263;-74
2023/12/26 02:33:52;;;;;;;1.90;0.90;;;;;;;8.38;75.67;96479.21;105026;1256;98437;-75
2023/12/26 02:36:21;;;;;;;1.00;0.90;;;;;;;8.39;75.65;96474.77;104953;1256;103725;-75
2023/12/26 02:38:49;;;;;;;1.60;0.90;;;;;;;8.38;75.58;96463.45;105054;1256;101325;-74
2023/12/26 02:41:16;;;;;;;1.40;1.00;;;;;;;8.37;75.55;96459.90;104889;1256;99888;-74
2023/12/26 02:43:44;;;;;;;1.30;0.90;;;;;;;8.36;75.53;96453.41;104938;1254;97921;-74
2023/12/26 02:46:12;;;;;;;2.60;1.60;;;;;;;8.34;75.60;96453.63;104941;1253;99263;-71
2023/12/26 02:48:40;;;;;;;1.60;1.10;;;;;;;8.34;75.66;96453.14;104900;1260;102689;-70
2023/12/26 02:51:08;;;;;;;1.30;1.00;;;;;;;8.31;75.68;96452.20;104935;1256;101160;-70
2023/12/26 02:53:36;;;;;;;1.80;1.10;;;;;;;8.28;75.56;96448.16;104942;1257;99791;-70
2023/12/26 02:56:03;;;;;;;1.60;1.00;;;;;;;8.27;75.81;96448.58;105024;1256;97935;-75
2023/12/26 02:58:32;;;;;;;1.10;1.00;;;;;;;8.27;75.92;96443.33;104950;1256;98396;-75
2023/12/26 03:01:00;;;;;;;1.20;0.80;;;;;;;8.27;75.88;96436.50;104943;1256;103333;-75
2023/12/26 03:03:27;;;;;;;1.20;1.10;;;;;;;8.28;75.85;96439.06;104905;1275;100432;-75
2023/12/26 03:05:55;;;;;;;1.50;1.10;;;;;;;8.27;75.98;96442.70;104958;1260;99245;-75
2023/12/26 03:08:23;;;;;;;1.10;0.80;;;;;;;8.26;76.07;96434.77;104907;1256;97925;-74
2023/12/26 03:10:51;;;;;;;1.40;1.00;;;;;;;8.26;75.91;96439.81;105008;1257;99155;-75
2023/12/26 03:13:19;;;;;;;2.20;1.00;;;;;;;8.25;76.03;96444.04;105011;1257;103345;-74
2023/12/26 03:15:47;;;;;;;1.80;1.20;;;;;;;8.26;76.04;96438.53;104992;1254;101627;-75
2023/12/26 03:18:17;;;;;;;1.30;0.90;;;;;;;8.28;75.93;96429.51;104930;1264;98446;-75
2023/12/26 03:20:45;;;;;;;1.20;0.80;;;;;;;8.30;75.90;96430.44;104922;1257;98907;-75
2023/12/26 03:23:12;;;;;;;2.40;0.90;;;;;;;8.30;75.97;96423.98;104934;1256;98417;-75
2023/12/26 03:25:40;;;;;;;1.00;1.00;;;;;;;8.31;75.85;96418.61;104958;1256;102569;-75
2023/12/26 03:28:08;;;;;;;2.00;0.90;;;;;;;8.31;75.75;96417.84;104936;1260;100311;-75
2023/12/26 03:30:35;;;;;;;2.30;1.20;;;;;;;8.31;75.74;96411.21;104886;1269;100052;-75
2023/12/26 03:33:03;;;;;;;2.40;1.10;;;;;;;8.30;75.79;96409.36;104994;1253;97956;-70
2023/12/26 03:35:31;;;;;;;1.30;1.20;;;;;;;8.28;75.95;96400.34;104983;1258;98444;-75
2023/12/26 03:37:59;;;;;;;1.00;0.90;;;;;;;8.26;76.11;96405.27;104987;1267;102574;-76
2023/12/26 03:40:26;;;;;;;1.80;1.30;;;;;;;8.26;76.15;96403.38;104934;1256;108876;-75
2023/12/26 03:42:55;;;;;;;1.80;1.50;;;;;;;8.27;76.22;96398.32;104897;1258;98539;-75
2023/12/26 03:45:26;;;;;;;1.60;1.40;;;;;;;8.25;76.41;96399.33;104928;1256;98502;-75
2023/12/26 03:47:54;;;;;;;1.70;1.40;;;;;;;8.24;76.40;96398.13;105003;1256;98447;-74
2023/12/26 03:50:22;;;;;;;2.10;1.40;;;;;;;8.25;76.37;96397.02;104962;1257;103248;-74
2023/12/26 03:52:50;;;;;;;1.50;1.30;;;;;;;8.23;76.59;96396.09;105028;1254;101351;-75
2023/12/26 03:55:17;;;;;;;1.80;1.40;;;;;;;8.22;76.54;96385.52;105097;1254;99993;-74
2023/12/26 03:57:46;;;;;;;1.40;1.20;;;;;;;8.22;76.72;96389.17;104953;1253;99263;-74
2023/12/26 04:00:14;;;;;;;1.20;1.10;;;;;;;8.23;76.48;96386.02;104967;1256;98849;-74
2023/12/26 04:02:42;;;;;;;1.60;1.20;;;;;;;8.23;76.49;96381.80;104946;1266;103696;-82
2023/12/26 04:05:10;;;;;;;2.80;1.40;;;;;;;8.24;76.36;96380.80;104996;1257;101107;-81
2023/12/26 04:07:39;;;;;;;1.30;1.10;;;;;;;8.25;76.42;96380.51;104940;1258;98688;-82
2023/12/26 04:10:07;;;;;;;2.00;1.60;;;;;;;8.23;76.78;96386.31;104932;1256;97990;-82
2023/12/26 04:12:35;;;;;;;1.50;1.30;;;;;;;8.22;76.76;96384.13;105028;1256;98842;-70
2023/12/26 04:15:04;;;;;;;1.80;1.10;;;;;;;8.24;76.56;96379.98;104985;1252;102534;-70
2023/12/26 04:17:31;;;;;;;2.10;1.30;;;;;;;8.23;76.76;96380.73;104959;1263;100512;-75
2023/12/26 04:19:59;;;;;;;1.40;1.00;;;;;;;8.23;76.87;96379.20;104954;1257;99212;-75
2023/12/26 04:22:27;;;;;;;1.30;1.10;;;;;;;8.23;76.63;96379.27;104935;1257;97928;-75
2023/12/26 04:24:55;;;;;;;1.70;1.30;;;;;;;8.23;76.71;96372.34;104953;1256;98403;-75
2023/12/26 04:27:23;;;;;;;2.40;1.30;;;;;;;8.21;76.69;96370.95;104954;1256;102562;-75
2023/12/26 04:29:50;;;;;;;3.10;1.30;;;;;;;8.21;76.65;96372.91;104943;1253;101862;-75
2023/12/26 04:32:18;;;;;;;2.20;1.30;;;;;;;8.19;76.82;96367.88;104946;1256;99388;-82
2023/12/26 04:34:46;;;;;;;2.00;1.20;;;;;;;8.17;77.06;96360.16;104969;1272;97957;-82
2023/12/26 04:37:14;;;;;;;1.90;1.10;;;;;;;8.15;77.29;96363.64;104976;1257;99506;-82
2023/12/26 04:39:42;;;;;;;2.20;1.10;;;;;;;8.13;77.48;96360.61;104945;1257;104101;-82
2023/12/26 04:42:10;;;;;;;1.20;1.00;;;;;;;8.13;77.51;96364.12;104923;1256;101677;-82
2023/12/26 04:44:37;;;;;;;3.30;1.00;;;;;;;8.13;77.56;96365.61;104934;1256;99909;-82
2023/12/26 04:47:05;;;;;;;1.30;1.20;;;;;;;8.12;77.39;96364.95;104978;1257;99142;-82
2023/12/26 04:49:33;;;;;;;2.50;1.00;;;;;;;8.13;77.44;96361.11;104976;1257;99286;-82
2023/12/26 04:52:00;;;;;;;1.20;1.00;;;;;;;8.13;77.54;96359.37;105001;1257;103696;-70
2023/12/26 04:54:28;;;;;;;0.90;0.90;;;;;;;8.13;77.40;96362.02;104943;1260;101331;-70
2023/12/26 04:56:56;;;;;;;1.30;1.10;;;;;;;8.13;77.50;96361.39;104939;1260;98933;-71
2023/12/26 04:59:23;;;;;;;2.10;1.00;;;;;;;8.14;77.46;96360.56;104906;1256;98485;-71
2023/12/26 05:01:51;;;;;;;1.40;1.30;;;;;;;8.15;77.54;96355.75;105000;1257;99241;-75
2023/12/26 05:04:19;;;;;;;2.20;1.00;;;;;;;8.17;77.45;96355.11;104966;1256;103717;-74
2023/12/26 05:06:47;;;;;;;2.00;0.80;;;;;;;8.19;77.48;96356.48;104962;1254;101279;-75
2023/12/26 05:09:16;;;;;;;1.50;1.20;;;;;;;8.22;77.34;96351.05;104935;1260;99238;-74
2023/12/26 05:11:44;;;;;;;1.40;1.20;;;;;;;8.24;77.27;96347.35;105049;1254;99288;-80
2023/12/26 05:14:12;;;;;;;1.20;1.00;;;;;;;8.25;77.21;96347.92;104997;1254;98546;-79
2023/12/26 05:16:42;;;;;;;1.20;1.00;;;;;;;8.26;77.16;96342.33;105006;1257;103374;-80
2023/12/26 05:19:10;;;;;;;2.50;0.90;;;;;;;8.26;77.04;96342.45;105009;1257;101278;-80
2023/12/26 05:21:38;;;;;;;1.90;1.20;;;;;;;8.27;77.11;96340.37;104925;1256;99111;-80
2023/12/26 05:24:06;;;;;;;1.70;1.00;;;;;;;8.27;76.96;96340.00;104896;1259;98863;-80
2023/12/26 05:26:44;;;;;;;0.90;0.80;;;;;;;8.29;77.01;96333.78;104937;1254;98740;-79
2023/12/26 05:29:14;;;;;;;2.30;0.90;;;;;;;8.32;76.93;96331.72;104977;1272;104426;-79
2023/12/26 05:31:42;;;;;;;1.40;0.90;;;;;;;8.34;76.83;96329.98;105005;1257;100035;-80
2023/12/26 05:34:10;;;;;;;1.60;1.00;;;;;;;8.34;76.72;96325.10;104914;1256;100123;-79
2023/12/26 05:36:38;;;;;;;1.30;1.20;;;;;;;8.37;76.72;96329.88;104922;1260;98013;-80
2023/12/26 05:39:08;;;;;;;1.80;1.30;;;;;;;8.40;76.65;96322.16;104913;1257;98445;-80
2023/12/26 05:41:36;;;;;;;1.70;1.10;;;;;;;8.43;76.56;96328.41;105039;1256;102632;-80
2023/12/26 05:44:03;;;;;;;1.20;0.90;;;;;;;8.43;76.55;96330.65;104878;1260;100325;-80
2023/12/26 05:46:32;;;;;;;1.30;1.00;;;;;;;8.44;76.49;96322.40;104973;1258;98598;-79
2023/12/26 05:48:59;;;;;;;2.20;1.20;;;;;;;8.47;76.45;96322.30;105009;1267;97970;-80
2023/12/26 05:51:27;;;;;;;1.40;1.10;;;;;;;8.50;76.50;96317.56;104966;1264;97915;-74
2023/12/26 05:53:56;;;;;;;1.40;1.00;;;;;;;8.50;76.38;96312.85;104972;1258;103695;-75
2023/12/26 05:56:24;;;;;;;1.40;1.10;;;;;;;8.48;76.41;96312.13;104974;1268;100525;-75
2023/12/26 05:58:51;;;;;;;4.90;1.00;;;;;;;8.48;76.46;96310.67;104916;1257;99790;-75
2023/12/26 06:01:19;;;;;;;1.70;1.10;;;;;;;8.50;76.61;96313.42;105018;1268;98740;-74
2023/12/26 06:03:47;;;;;;;1.90;0.90;;;;;;;8.52;76.45;96316.77;104920;1259;98347;-75
2023/12/26 06:06:15;;;;;;;2.70;1.00;;;;;;;8.53;76.50;96311.45;104988;1272;103986;-74
2023/12/26 06:08:43;;;;;;;1.60;0.80;;;;;;;8.55;76.56;96308.09;105063;1257;100149;-71
2023/12/26 06:11:11;;;;;;;2.50;1.60;;;;;;;8.56;76.57;96308.45;104991;1257;99791;-71
2023/12/26 06:13:39;;;;;;;0.90;0.90;;;;;;;8.58;76.54;96312.42;105002;1266;98001;-71
2023/12/26 06:16:07;;;;;;;1.00;0.90;;;;;;;8.60;76.56;96307.48;104977;1275;98476;-71
2023/12/26 06:18:35;;;;;;;1.40;1.10;;;;;;;8.61;76.55;96302.73;104971;1264;102507;-71
2023/12/26 06:21:03;;;;;;;0.80;0.80;;;;;;;8.63;76.43;96303.88;104907;1260;100480;-71
2023/12/26 06:23:31;;;;;;;1.50;1.10;;;;;;;8.66;76.46;96311.63;104830;1259;99018;-71
2023/12/26 06:25:59;;;;;;;2.20;1.00;;;;;;;8.68;76.38;96313.52;104951;1258;97998;-71
2023/12/26 06:28:26;;;;;;;1.40;1.20;;;;;;;8.70;76.37;96311.58;104947;1257;97904;-81
2023/12/26 06:30:54;;;;;;;1.30;1.00;;;;;;;8.72;76.37;96313.45;104942;1259;103378;-75
2023/12/26 06:33:22;;;;;;;1.40;1.00;;;;;;;8.73;76.26;96317.86;104953;1257;100454;-74
2023/12/26 06:35:50;;;;;;;1.80;1.40;;;;;;;8.77;76.26;96324.70;104920;1257;99855;-75
2023/12/26 06:38:18;;;;;;;1.80;1.40;;;;;;;8.80;76.27;96320.27;104936;1257;98026;-75
2023/12/26 06:40:46;;;;;;;1.50;1.30;;;;;;;8.82;76.14;96322.63;104956;1257;98408;-74
2023/12/26 06:43:15;;;;;;;1.10;1.00;;;;;;;8.85;76.22;96320.73;105022;1266;102502;-75
2023/12/26 06:45:43;;;;;;;1.00;0.90;;;;;;;8.88;76.15;96322.69;104978;1266;101068;-77
2023/12/26 06:48:11;;;;;;;1.20;1.10;;;;;;;8.90;76.16;96320.77;104963;1257;99673;-75
2023/12/26 06:50:39;;;;;;;1.30;0.80;;;;;;;8.92;76.16;96325.09;104931;1260;98059;-74
2023/12/26 06:53:07;;;;;;;1.20;1.00;;;;;;;8.96;76.09;96324.03;105016;1257;98322;-75
2023/12/26 06:55:34;;;;;;;1.60;1.00;;;;;;;8.98;76.15;96321.73;104918;1259;103689;-75
2023/12/26 06:58:02;;;;;;;0.70;0.60;;;;;;;8.99;76.16;96323.28;104925;1257;100379;-74
2023/12/26 07:00:30;;;;;;;1.30;0.90;;;;;;;9.03;76.10;96325.27;104904;1260;100306;-75
2023/12/26 07:02:58;;;;;;;0.90;0.80;;;;;;;9.04;76.10;96325.09;104963;1272;97921;-80
2023/12/26 07:05:25;;;;;;;1.30;1.10;;;;;;;9.08;76.09;96320.22;104880;1258;98426;-81
2023/12/26 07:07:53;;;;;;;1.70;1.20;;;;;;;9.11;76.07;96321.27;104906;1254;103594;-80
2023/12/26 07:10:21;;;;;;;1.90;1.20;;;;;;;9.13;76.06;96322.15;104939;1259;101666;-80
2023/12/26 07:12:48;;;;;;;1.90;1.60;;;;;;;9.15;76.06;96322.89;104841;1257;98860;-80
2023/12/26 07:15:16;;;;;;;3.00;1.70;;;;;;;9.16;76.09;96316.89;104899;1270;97928;-84
2023/12/26 07:17:44;;;;;;;6.10;3.50;;;;;;;9.18;76.04;96323.18;104964;1267;98452;-83
2023/12/26 07:20:12;;;;;;;3.20;2.20;;;;;;;9.19;76.04;96328.80;104909;1269;102532;-83
2023/12/26 07:22:39;;;;;;;2.50;1.70;;;;;;;9.19;76.03;96330.99;104954;1257;100566;-83
2023/12/26 07:25:07;;;;;;;1.20;1.00;;;;;;;9.21;76.01;96333.70;104926;1266;98606;-74
2023/12/26 07:27:35;;;;;;;2.10;1.80;;;;;;;9.23;76.17;96343.17;104938;1253;99129;-74
2023/12/26 07:30:03;;;;;;;2.20;1.30;;;;;;;9.24;76.14;96344.20;104963;1256;98504;-75
2023/12/26 07:32:31;;;;;;;1.40;1.10;;;;;;;9.27;76.06;96347.18;104947;1267;103425;-83
2023/12/26 07:34:58;;;;;;;2.80;1.20;;;;;;;9.30;76.11;96344.19;104946;1254;101368;-84
2023/12/26 07:37:26;;;;;;;0.90;0.80;;;;;;;9.34;76.15;96345.09;104870;1260;99836;-84
2023/12/26 07:39:54;;;;;;;0.70;0.70;;;;;;;9.40;76.19;96356.69;104925;1260;98498;-83
2023/12/26 07:42:22;;;;;;;1.20;0.80;;;;;;;9.46;76.18;96356.98;104949;1256;98356;-83
2023/12/26 07:44:50;;;;;;;1.50;1.20;;;;;;;9.48;76.17;96356.69;104945;1266;102184;-76
2023/12/26 07:47:17;;;;;;;1.20;1.10;;;;;;;9.56;76.20;96360.70;104972;1266;101084;-76
2023/12/26 07:49:45;;;;;;;1.30;1.00;;;;;;;9.59;76.01;96363.48;104912;1266;98509;-76
2023/12/26 07:52:13;;;;;;;1.30;1.00;;;;;;;9.57;75.78;96366.49;104956;1254;98377;-75
2023/12/26 07:54:40;;;;;;;1.20;1.00;;;;;;;9.57;75.81;96366.76;104910;1256;98433;-75
2023/12/26 07:57:08;;;;;;;0.90;0.80;;;;;;;9.57;76.01;96369.69;104917;1262;102160;-75
2023/12/26 07:59:36;;;;;;;2.40;1.00;;;;;;;9.59;76.03;96374.85;104917;1274;100259;-76
2023/12/26 08:02:04;;;;;;;1.40;1.10;;;;;;;9.61;75.91;96382.24;104957;1257;98601;-84
2023/12/26 08:04:31;;;;;;;1.30;0.90;;;;;;;9.63;75.94;96388.56;104920;1257;99280;-77
2023/12/26 08:07:00;;;;;;;1.60;1.20;;;;;;;9.65;75.94;96391.79;104991;1267;98420;-78
2023/12/26 08:09:27;;;;;;;3.40;1.90;;;;;;;9.66;75.99;96388.89;104997;1257;102300;-77
2023/12/26 08:11:55;;;;;;;7.90;4.40;;;;;;;9.68;76.01;96388.76;104894;1258;101260;-78
2023/12/26 08:14:23;;;;;;;4.10;1.90;;;;;;;9.71;75.87;96392.23;104917;1266;99452;-77
2023/12/26 08:16:50;;;;;;;2.20;1.50;;;;;;;9.74;76.00;96396.80;104953;1266;97997;-77
2023/12/26 08:19:18;;;;;;;2.00;1.40;;;;;;;9.77;75.89;96392.73;104933;1267;98443;-75
2023/12/26 08:21:46;;;;;;;9.00;2.90;;;;;;;9.80;75.79;96400.92;104964;1257;103681;-75
2023/12/26 08:24:14;;;;;;;2.90;1.50;;;;;;;9.82;75.60;96395.05;104998;1266;100114;-75
2023/12/26 08:26:41;;;;;;;3.40;1.90;;;;;;;9.85;75.76;96397.06;105014;1254;98414;-75
2023/12/26 08:29:09;;;;;;;1.60;1.10;;;;;;;9.85;75.48;96405.38;104985;1257;97912;-75
2023/12/26 08:31:37;;;;;;;1.20;1.10;;;;;;;9.85;75.37;96401.45;104998;1258;97870;-76
2023/12/26 08:34:05;;;;;;;1.10;1.00;;;;;;;9.87;75.25;96398.64;104933;1260;104059;-76
2023/12/26 08:36:32;;;;;;;1.30;1.10;;;;;;;9.89;75.27;96393.95;104949;1260;101638;-73
2023/12/26 08:39:00;;;;;;;1.10;1.00;;;;;;;9.91;75.35;96389.77;104960;1257;99958;-75
2023/12/26 08:41:28;;;;;;;3.90;1.00;;;;;;;9.93;75.15;96394.67;104933;1257;97915;-71
2023/12/26 08:43:55;;;;;;;1.30;1.20;;;;;;;9.94;75.21;96404.69;104950;1254;99813;-70
2023/12/26 08:46:23;;;;;;;2.00;1.50;;;;;;;9.94;75.10;96402.30;105000;1254;103336;-75
2023/12/26 08:48:51;;;;;;;1.10;1.00;;;;;;;9.93;75.07;96399.36;104965;1267;100031;-75
2023/12/26 08:51:19;;;;;;;2.90;1.20;;;;;;;9.93;75.12;96396.02;104951;1267;99924;-75
2023/12/26 08:53:47;;;;;;;2.60;1.40;;;;;;;9.92;75.13;96401.77;104961;1257;99209;-77
2023/12/26 08:56:15;;;;;;;3.10;1.20;;;;;;;9.94;75.12;96397.77;104969;1267;98494;-77
2023/12/26 08:58:43;;;;;;;2.10;1.50;;;;;;;9.94;74.94;96393.37;104816;1267;153506;-77
2023/12/26 09:01:11;;;;;;;2.10;1.60;;;;;;;9.97;75.00;96390.31;105020;1267;101305;-74
2023/12/26 09:03:39;;;;;;;2.10;1.50;;;;;;;10.00;74.98;96398.77;104920;1257;99680;-82
2023/12/26 09:06:10;;;;;;;1.50;1.30;;;;;;;10.05;74.87;96407.27;104889;1258;99244;-82
2023/12/26 09:08:39;;;;;;;3.00;1.30;;;;;;;10.10;74.51;96409.35;105020;1270;97838;-82
2023/12/26 09:11:06;;;;;;;2.50;1.30;;;;;;;10.13;74.12;96402.37;104979;1266;103186;-83
2023/12/26 09:13:34;;;;;;;1.40;1.10;;;;;;;10.16;74.15;96395.83;104956;1257;100325;-83
2023/12/26 09:16:02;;;;;;;1.70;0.90;;;;;;;10.20;74.21;96401.41;104921;1267;99223;-75
2023/12/26 09:18:29;;;;;;;1.80;1.00;;;;;;;10.23;73.58;96403.98;104951;1257;97988;-75
2023/12/26 09:20:57;;;;;;;1.90;1.10;;;;;;;10.24;73.41;96394.17;104964;1267;97902;-75
2023/12/26 09:23:25;;;;;;;2.40;1.40;;;;;;;10.24;73.07;96392.26;105012;1267;103497;-74
2023/12/26 09:25:53;;;;;;;4.60;1.40;;;;;;;10.23;72.83;96395.84;104945;1259;101322;-74
2023/12/26 09:28:20;;;;;;;1.70;1.10;;;;;;;10.24;73.12;96391.60;104910;1260;99924;-74
2023/12/26 09:30:48;;;;;;;2.00;1.80;;;;;;;10.24;73.02;96394.79;104934;1266;97947;-75
2023/12/26 09:33:16;;;;;;;2.00;1.50;;;;;;;10.24;73.05;96397.66;104969;1267;99272;-74
2023/12/26 09:35:44;;;;;;;4.30;2.10;;;;;;;10.26;73.22;96396.55;104926;1260;103777;-74
2023/12/26 09:38:11;;;;;;;8.70;2.80;;;;;;;10.27;73.11;96399.10;104985;1256;101444;-76
2023/12/26 09:40:39;;;;;;;6.10;2.90;;;;;;;10.29;73.29;96402.38;104982;1258;99098;-74
2023/12/26 09:43:07;;;;;;;3.30;1.90;;;;;;;10.33;73.46;96400.89;104889;1257;98443;-75
2023/12/26 09:45:35;;;;;;;3.90;2.60;;;;;;;10.40;73.42;96400.50;104916;1257;98438;-76
2023/12/26 09:48:03;;;;;;;1.60;1.20;;;;;;;10.43;72.34;96395.39;105124;1260;103281;-71
2023/12/26 09:50:31;;;;;;;3.70;1.70;;;;;;;10.41;71.88;96391.23;104929;1266;101015;-71
2023/12/26 09:53:02;;;;;;;2.40;1.70;;;;;;;10.39;72.05;96387.20;105048;1256;107582;-71
2023/12/26 09:55:30;;;;;;;2.60;1.90;;;;;;;10.38;72.20;96395.71;105134;1259;98026;-72
2023/12/26 09:57:58;;;;;;;2.40;1.70;;;;;;;10.33;72.32;96401.98;104980;1260;98500;-72
2023/12/26 10:00:27;;;;;;;2.70;2.10;;;;;;;10.33;72.36;96404.05;105122;1254;103098;-71
2023/12/26 10:02:55;;;;;;;1.90;1.50;;;;;;;10.37;72.14;96408.14;104978;1257;100122;-71
2023/12/26 10:05:24;;;;;;;2.70;1.70;;;;;;;10.45;72.20;96411.30;106084;1254;100052;-71
2023/12/26 10:07:51;;;;;;;2.60;1.70;;;;;;;10.52;72.24;96411.72;104980;1264;99375;-71
2023/12/26 10:10:20;;;;;;;2.20;1.70;;;;;;;10.56;72.03;96411.91;105008;1257;97903;-72
2023/12/26 10:12:49;;;;;;;2.70;1.60;;;;;;;10.58;71.88;96416.18;105042;1266;103617;-72
2023/12/26 10:15:18;;;;;;;3.30;1.90;;;;;;;10.58;71.70;96412.41;105041;1257;101448;-71
2023/12/26 10:17:46;;;;;;;3.40;2.40;;;;;;;10.59;71.85;96413.73;104981;1260;98700;-75
2023/12/26 10:20:18;;;;;;;3.00;1.80;;;;;;;10.61;71.71;96411.12;104985;1255;97928;-85
2023/12/26 10:22:46;;;;;;;2.80;1.60;;;;;;;10.60;71.45;96408.56;105155;1260;97915;-85
2023/12/26 10:25:14;;;;;;;2.90;1.60;;;;;;;10.59;71.24;96412.81;105125;1258;102029;-85
2023/12/26 10:27:54;;;;;;;2.20;1.70;;;;;;;10.60;71.17;96419.15;105062;1258;101352;-84
2023/12/26 10:30:22;;;;;;;2.90;2.40;;;;;;;10.63;71.46;96417.96;105045;1266;99080;-85
2023/12/26 10:32:59;;;;;;;3.60;2.10;;;;;;;10.68;71.44;96423.26;105018;1257;97903;-74
2023/12/26 10:35:27;;;;;;;2.50;1.80;;;;;;;10.69;70.89;96422.09;105041;1257;98417;-75
2023/12/26 10:37:54;;;;;;;2.00;1.40;;;;;;;10.68;70.21;96427.08;105105;1261;103360;-75
2023/12/26 10:40:23;;;;;;;1.90;1.30;;;;;;;10.66;69.73;96430.48;104978;1271;101620;-74
2023/12/26 10:42:52;;;;;;;2.10;1.60;;;;;;;10.63;69.50;96428.27;104944;1258;99655;-75
2023/12/26 10:45:20;;;;;;;1.40;1.20;;;;;;;10.63;69.80;96425.46;105008;1257;97908;-74
2023/12/26 10:47:55;;;;;;;2.70;1.80;;;;;;;10.63;69.39;96417.30;105031;1258;98332;-75
2023/12/26 10:50:24;;;;;;;2.90;1.10;;;;;;;10.61;69.18;96421.66;104932;1270;103096;-75
2023/12/26 10:53:16;;;;;;;2.30;1.40;;;;;;;10.63;69.01;96428.48;105056;1257;100064;-74
2023/12/26 10:55:46;;;;;;;5.20;1.80;;;;;;;10.64;68.83;96429.96;105058;1267;99108;-75
2023/12/26 10:58:24;;;;;;;2.30;1.30;;;;;;;10.65;68.66;96424.42;104955;1258;98053;-74
2023/12/26 11:00:52;;;;;;;2.60;1.50;;;;;;;10.60;68.39;96427.73;105021;1259;98411;-75
2023/12/26 13:53:23;;;;;;;19.50;9.60;;;;;;;9.81;64.19;96577.90;105110;1254;101342;-84
2023/12/26 13:56:28;;;;;;;30.60;14.30;;;;;;;9.78;64.56;96584.73;105007;1267;98407;-85
2023/12/26 13:59:34;;;;;;;41.40;19.80;;;;;;;9.74;64.32;96589.59;105073;1257;98719;-86
2023/12/26 14:02:39;;;;;;;39.20;17.80;;;;;;;9.68;64.07;96593.55;105126;1269;98437;-71
2023/12/26 14:05:45;;;;;;;48.00;21.10;;;;;;;9.63;64.34;96595.54;105022;1260;103464;-71
2023/12/26 14:08:51;;;;;;;30.60;14.70;;;;;;;9.59;64.44;96598.52;104917;1264;101304;-70
2023/12/26 14:11:56;;;;;;;30.80;14.30;;;;;;;9.53;64.86;96596.44;105160;1270;100080;-70
2023/12/26 14:15:02;;;;;;;23.90;12.90;;;;;;;9.50;64.96;96597.51;105069;1269;97931;-70
2023/12/26 14:18:09;;;;;;;22.40;12.00;;;;;;;9.47;64.99;96605.61;104935;1267;98468;-76
2023/12/26 14:21:14;;;;;;;25.30;12.70;;;;;;;9.42;64.35;96608.48;106828;1253;102451;-75
2023/12/26 14:24:20;;;;;;;11.20;6.70;;;;;;;9.38;64.69;96610.20;104879;1259;100035;-76
2023/12/26 14:27:26;;;;;;;11.80;7.00;;;;;;;9.36;64.97;96610.98;104933;1254;99993;-78